Time;durP1;ratioP1;P1;durP2;ratioP2;P2;SDS_P1;SDS_P2;PMS_P1;PMS_P2;Temp;Humidity;BMP_temperature;BMP_pressure;BME280_temperature;BME280_humidity;BME280_pressure;Samples;Min_cycle;Max_cycle;Signal;HPM_P1;HPM_P2
2021/07/18 00:00:18;;;;;;;6.53;2.90;;;20.80;85.20;;;;;;5078595;28;20056;-94
2021/07/18 00:02:46;;;;;;;7.53;2.45;;;20.80;85.20;;;;;;5077919;28;20048;-95
2021/07/18 00:05:12;;;;;;;6.50;2.42;;;20.80;85.30;;;;;;5075949;28;20048;-95
2021/07/18 00:07:37;;;;;;;6.32;2.58;;;20.70;85.30;;;;;;5074721;28;20067;-95
2021/07/18 00:10:05;;;;;;;7.72;2.88;;;20.70;85.30;;;;;;5075591;28;20445;-94
2021/07/18 00:12:31;;;;;;;6.03;2.28;;;20.60;85.40;;;;;;5074819;28;20044;-95
2021/07/18 00:14:57;;;;;;;5.45;2.50;;;20.60;85.50;;;;;;5075596;28;20438;-94
2021/07/18 00:17:23;;;;;;;7.07;2.80;;;20.60;85.60;;;;;;5078002;28;20048;-93
2021/07/18 00:19:49;;;;;;;8.10;2.65;;;20.50;85.60;;;;;;5095383;28;20054;-94
2021/07/18 00:22:15;;;;;;;6.18;2.55;;;20.60;85.60;;;;;;5094226;28;20045;-93
2021/07/18 00:24:40;;;;;;;6.35;2.90;;;20.50;85.40;;;;;;5095617;28;20048;-93
2021/07/18 00:27:06;;;;;;;8.10;2.75;;;20.40;85.60;;;;;;5075886;28;20469;-94
2021/07/18 00:29:32;;;;;;;6.95;2.50;;;20.40;85.70;;;;;;5074455;28;20075;-93
2021/07/18 00:31:58;;;;;;;7.25;2.83;;;20.40;85.80;;;;;;5076073;28;20079;-94
2021/07/18 00:34:23;;;;;;;5.72;2.80;;;20.30;85.90;;;;;;5078474;28;20044;-94
2021/07/18 00:36:50;;;;;;;5.47;2.47;;;20.30;85.60;;;;;;5079578;28;20057;-94
2021/07/18 00:39:15;;;;;;;4.63;2.28;;;20.30;85.80;;;;;;5080298;28;20051;-95
2021/07/18 00:41:44;;;;;;;8.20;3.00;;;20.20;85.90;;;;;;5078819;28;20522;-94
2021/07/18 00:44:10;;;;;;;7.28;2.70;;;20.20;85.90;;;;;;5077974;28;20059;-93
2021/07/18 00:46:36;;;;;;;8.98;2.88;;;20.20;85.70;;;;;;5078632;28;20041;-93
2021/07/18 00:49:03;;;;;;;6.05;2.67;;;20.10;85.90;;;;;;5080176;28;20079;-94
2021/07/18 00:51:29;;;;;;;6.82;3.05;;;20.10;85.90;;;;;;5080042;28;20048;-93
2021/07/18 00:53:54;;;;;;;5.70;2.75;;;20.10;85.90;;;;;;5078438;28;20040;-92
2021/07/18 00:56:20;;;;;;;7.28;2.90;;;20.00;85.70;;;;;;5079491;28;20048;-93
2021/07/18 00:58:50;;;;;;;7.53;3.30;;;20.00;85.80;;;;;;5078628;28;20067;-93
2021/07/18 01:01:16;;;;;;;6.97;2.70;;;20.00;85.90;;;;;;5077539;28;20133;-92
2021/07/18 01:03:45;;;;;;;5.82;2.80;;;19.90;85.90;;;;;;5078806;28;20106;-93
2021/07/18 01:06:10;;;;;;;8.50;2.95;;;19.90;86.00;;;;;;5079675;28;20045;-93
2021/07/18 01:08:36;;;;;;;6.60;2.78;;;19.80;86.10;;;;;;5093402;28;20153;-93
2021/07/18 01:11:02;;;;;;;7.30;3.05;;;19.80;86.20;;;;;;5098673;28;20544;-93
2021/07/18 01:13:28;;;;;;;6.20;3.45;;;19.80;86.40;;;;;;5099395;28;20108;-93
2021/07/18 01:15:54;;;;;;;8.50;3.10;;;19.70;86.60;;;;;;5098067;28;20048;-92
2021/07/18 01:18:20;;;;;;;7.63;3.42;;;19.70;86.60;;;;;;5100305;28;20048;-92
2021/07/18 01:20:48;;;;;;;7.78;3.20;;;19.70;86.80;;;;;;5101473;28;20059;-92
2021/07/18 01:23:14;;;;;;;7.35;3.50;;;19.60;86.90;;;;;;5101783;28;20040;-92
2021/07/18 01:25:40;;;;;;;7.07;3.22;;;19.60;86.90;;;;;;5109302;28;20491;-92
2021/07/18 01:28:08;;;;;;;5.53;3.17;;;19.60;87.00;;;;;;5112542;28;20044;-94
2021/07/18 01:30:34;;;;;;;7.88;3.50;;;19.60;87.00;;;;;;5093157;28;20106;-93
2021/07/18 01:33:00;;;;;;;8.85;3.20;;;19.50;87.30;;;;;;5093309;28;20045;-92
2021/07/18 01:35:27;;;;;;;8.07;3.15;;;19.50;87.10;;;;;;5083410;28;20055;-92
2021/07/18 01:37:55;;;;;;;6.20;3.15;;;19.40;86.70;;;;;;5087516;28;20056;-92
2021/07/18 01:40:20;;;;;;;6.47;3.20;;;19.40;86.90;;;;;;5115402;28;20083;-91
2021/07/18 01:42:46;;;;;;;8.07;3.50;;;19.30;87.00;;;;;;5114903;28;20066;-90
2021/07/18 01:45:12;;;;;;;7.82;3.55;;;19.30;87.30;;;;;;5114914;28;20149;-90
2021/07/18 01:47:38;;;;;;;6.68;3.38;;;19.30;87.40;;;;;;5115070;28;20078;-90
2021/07/18 01:50:06;;;;;;;6.20;3.03;;;19.20;87.60;;;;;;5114335;28;20052;-90
2021/07/18 01:52:32;;;;;;;7.68;3.50;;;19.20;87.60;;;;;;5100713;28;20048;-90
2021/07/18 01:54:58;;;;;;;9.65;3.15;;;19.20;87.60;;;;;;5096489;28;20103;-92
2021/07/18 01:57:26;;;;;;;6.80;3.20;;;19.20;87.60;;;;;;5096840;28;20044;-92
2021/07/18 01:59:51;;;;;;;6.53;3.13;;;19.10;87.60;;;;;;5096876;28;20379;-92
2021/07/18 02:02:17;;;;;;;6.43;3.55;;;19.10;87.20;;;;;;5095745;28;20048;-92
2021/07/18 02:04:46;;;;;;;7.50;3.70;;;19.00;86.40;;;;;;5096501;28;20471;-91
2021/07/18 02:07:11;;;;;;;6.55;3.50;;;19.00;86.70;;;;;;5096113;28;20097;-92
2021/07/18 02:09:37;;;;;;;7.20;4.03;;;19.00;87.50;;;;;;5096128;28;20052;-91
2021/07/18 02:12:06;;;;;;;7.28;3.90;;;19.00;87.70;;;;;;5096971;28;20150;-93
2021/07/18 02:14:33;;;;;;;6.38;3.80;;;19.00;88.00;;;;;;5095869;28;20388;-91
2021/07/18 02:16:59;;;;;;;6.25;3.80;;;18.90;87.50;;;;;;5095427;28;20044;-91
2021/07/18 02:19:28;;;;;;;6.35;3.85;;;18.90;87.90;;;;;;5095405;28;20130;-91
2021/07/18 02:21:55;;;;;;;6.18;3.72;;;18.80;88.10;;;;;;5095016;28;20487;-91
2021/07/18 02:24:20;;;;;;;6.18;4.00;;;18.80;88.10;;;;;;5095108;28;20059;-91
2021/07/18 02:26:46;;;;;;;8.25;3.78;;;18.80;88.20;;;;;;5095527;28;20056;-91
2021/07/18 02:29:12;;;;;;;6.78;3.60;;;18.80;88.10;;;;;;5086452;28;20063;-91
2021/07/18 02:31:38;;;;;;;5.53;3.50;;;18.70;88.00;;;;;;5074688;28;20102;-91
2021/07/18 02:34:04;;;;;;;7.57;3.92;;;18.70;87.90;;;;;;5074479;28;20044;-91
2021/07/18 02:36:31;;;;;;;6.53;3.92;;;18.70;88.30;;;;;;5075193;28;20056;-91
2021/07/18 02:38:58;;;;;;;6.18;3.70;;;18.70;88.50;;;;;;5075150;28;20075;-91
2021/07/18 02:41:25;;;;;;;6.30;3.97;;;18.70;88.10;;;;;;5074888;28;20056;-92
2021/07/18 02:43:51;;;;;;;5.35;3.72;;;18.60;88.30;;;;;;5074587;28;20399;-92
2021/07/18 02:46:17;;;;;;;6.28;3.88;;;18.60;88.30;;;;;;5074480;28;20048;-91
2021/07/18 02:48:43;;;;;;;7.60;4.13;;;18.60;88.20;;;;;;5074445;28;20048;-91
2021/07/18 02:51:08;;;;;;;6.72;3.90;;;18.60;88.40;;;;;;5073741;28;20110;-91
2021/07/18 02:53:34;;;;;;;7.82;4.15;;;18.60;88.30;;;;;;5074086;28;20057;-91
2021/07/18 02:56:00;;;;;;;7.57;3.75;;;18.50;88.30;;;;;;5073874;28;20060;-90
2021/07/18 02:58:25;;;;;;;5.78;3.70;;;18.60;88.50;;;;;;5075026;28;20048;-90
2021/07/18 03:00:51;;;;;;;7.72;4.22;;;18.60;88.80;;;;;;5094305;28;20491;-91
2021/07/18 03:03:18;;;;;;;7.72;4.40;;;18.50;88.60;;;;;;5094004;28;20473;-91
2021/07/18 03:05:44;;;;;;;7.50;4.75;;;18.50;88.70;;;;;;5094305;28;20044;-92
2021/07/18 03:08:10;;;;;;;6.75;4.25;;;18.50;88.80;;;;;;5094211;28;20048;-91
2021/07/18 03:10:36;;;;;;;7.63;4.38;;;18.50;88.70;;;;;;5094116;28;20381;-92
2021/07/18 03:13:01;;;;;;;6.53;4.60;;;18.50;88.90;;;;;;5094210;28;20050;-92
2021/07/18 03:15:27;;;;;;;7.90;4.28;;;18.50;89.00;;;;;;5094631;28;20105;-91
2021/07/18 03:17:52;;;;;;;7.78;4.60;;;18.50;89.00;;;;;;5093943;28;20048;-91
2021/07/18 03:20:19;;;;;;;6.85;4.68;;;18.40;89.00;;;;;;5094550;28;20055;-91
2021/07/18 03:22:46;;;;;;;7.43;4.50;;;18.40;88.80;;;;;;5094782;28;20044;-92
2021/07/18 03:25:13;;;;;;;6.63;4.43;;;18.40;88.40;;;;;;5093815;28;20052;-91
2021/07/18 03:27:40;;;;;;;6.57;4.38;;;18.40;88.70;;;;;;5094536;28;20051;-90
2021/07/18 03:30:09;;;;;;;6.13;4.40;;;18.30;88.90;;;;;;5093572;28;20044;-91
2021/07/18 03:32:35;;;;;;;6.80;4.45;;;18.30;88.90;;;;;;5093761;28;20067;-91
2021/07/18 03:35:01;;;;;;;9.38;4.35;;;18.30;88.90;;;;;;5093755;28;20052;-90
2021/07/18 03:37:27;;;;;;;7.30;4.85;;;18.20;89.00;;;;;;5093815;28;20051;-91
2021/07/18 03:39:54;;;;;;;7.13;4.90;;;18.30;89.30;;;;;;5094960;28;20059;-92
2021/07/18 03:42:19;;;;;;;8.38;5.15;;;18.20;89.30;;;;;;5093849;28;20048;-92
2021/07/18 03:44:45;;;;;;;7.50;4.50;;;18.20;89.20;;;;;;5094646;28;20100;-91
2021/07/18 03:47:11;;;;;;;8.63;4.90;;;18.20;89.00;;;;;;5093521;28;20451;-92
2021/07/18 03:49:37;;;;;;;8.57;4.88;;;18.20;90.00;;;;;;5083127;28;20135;-92
2021/07/18 03:52:04;;;;;;;6.88;4.80;;;18.20;89.50;;;;;;5073561;28;20439;-92
2021/07/18 03:54:32;;;;;;;6.43;4.63;;;18.10;89.40;;;;;;5073491;28;20101;-91
2021/07/18 03:56:58;;;;;;;7.20;5.18;;;18.10;89.30;;;;;;5074021;28;20055;-91
2021/07/18 03:59:24;;;;;;;7.88;4.85;;;18.10;89.40;;;;;;5074328;28;20048;-91
2021/07/18 04:01:50;;;;;;;6.97;4.60;;;18.10;89.30;;;;;;5073761;28;20105;-91
2021/07/18 04:04:16;;;;;;;8.52;4.82;;;18.10;89.00;;;;;;5073747;28;20041;-90
2021/07/18 04:06:42;;;;;;;7.28;4.78;;;18.00;89.10;;;;;;5080890;28;20039;-90
2021/07/18 04:09:08;;;;;;;7.25;4.95;;;18.00;89.20;;;;;;5097034;28;20040;-92
2021/07/18 04:11:33;;;;;;;9.57;5.00;;;18.00;88.90;;;;;;5097600;28;20059;-91
2021/07/18 04:13:59;;;;;;;10.75;5.25;;;17.90;88.90;;;;;;5097252;28;20040;-91
2021/07/18 04:16:24;;;;;;;8.68;5.22;;;17.90;90.00;;;;;;5097005;28;20055;-89
2021/07/18 04:18:50;;;;;;;8.13;4.95;;;17.90;89.70;;;;;;5096152;28;20067;-90
2021/07/18 04:21:19;;;;;;;6.80;4.70;;;17.90;89.30;;;;;;5096460;28;20122;-90
2021/07/18 04:23:46;;;;;;;8.18;5.00;;;17.90;89.50;;;;;;5097176;28;20054;-90
2021/07/18 04:26:11;;;;;;;10.50;5.38;;;17.80;89.50;;;;;;5096387;28;20055;-91
2021/07/18 04:28:37;;;;;;;10.20;4.60;;;17.80;89.30;;;;;;5096649;28;20048;-90
2021/07/18 04:31:03;;;;;;;7.32;4.70;;;17.80;88.30;;;;;;5096930;28;20051;-91
2021/07/18 04:33:29;;;;;;;8.00;5.07;;;17.80;88.20;;;;;;5096843;28;20415;-90
2021/07/18 04:35:54;;;;;;;8.55;5.20;;;17.80;89.10;;;;;;5096196;28;20055;-90
2021/07/18 04:38:20;;;;;;;9.07;5.15;;;17.80;88.50;;;;;;5096474;28;20040;-90
2021/07/18 04:40:46;;;;;;;7.47;5.03;;;17.80;89.10;;;;;;5096621;28;20054;-90
2021/07/18 04:43:12;;;;;;;7.68;5.38;;;17.80;89.60;;;;;;5095695;28;20052;-90
2021/07/18 04:45:38;;;;;;;7.85;5.22;;;17.70;89.40;;;;;;5093555;28;20051;-90
2021/07/18 04:48:04;;;;;;;8.18;5.22;;;17.70;89.40;;;;;;5076076;28;20066;-90
2021/07/18 04:50:29;;;;;;;8.45;5.00;;;17.70;89.20;;;;;;5076102;28;20106;-90
2021/07/18 04:52:55;;;;;;;7.28;4.95;;;17.70;89.40;;;;;;5075847;28;20492;-90
2021/07/18 04:55:22;;;;;;;7.30;4.90;;;17.70;89.60;;;;;;5075872;28;20058;-90
2021/07/18 04:57:48;;;;;;;7.95;4.88;;;17.70;89.60;;;;;;5075786;28;20051;-91
2021/07/18 05:00:20;;;;;;;9.80;4.97;;;17.70;89.40;;;;;;5078261;28;20040;-90
2021/07/18 05:02:46;;;;;;;8.40;4.90;;;17.70;89.40;;;;;;5096498;28;20051;-91
2021/07/18 05:05:13;;;;;;;8.65;4.68;;;17.70;89.40;;;;;;5095120;28;20044;-91
2021/07/18 05:07:46;;;;;;;8.05;5.28;;;17.70;89.00;;;;;;5100314;28;20099;-90
2021/07/18 05:10:12;;;;;;;6.75;4.25;;;17.70;89.00;;;;;;5093402;28;20456;-90
2021/07/18 05:12:38;;;;;;;7.55;4.97;;;17.70;89.00;;;;;;5095154;28;20059;-91
2021/07/18 05:15:05;;;;;;;7.90;5.05;;;17.70;88.60;;;;;;5095766;28;20124;-90
2021/07/18 05:17:31;;;;;;;10.48;4.72;;;17.70;88.60;;;;;;5095365;28;20044;-90
2021/07/18 05:19:58;;;;;;;6.63;4.93;;;17.60;88.60;;;;;;5094533;28;20052;-91
2021/07/18 05:22:24;;;;;;;8.98;5.95;;;17.70;88.40;;;;;;5075671;28;20037;-91
2021/07/18 05:24:50;;;;;;;7.03;5.00;;;17.70;89.70;;;;;;5075458;28;20102;-91
2021/07/18 05:27:16;;;;;;;8.25;4.82;;;17.70;89.50;;;;;;5089796;28;20048;-91
2021/07/18 05:29:42;;;;;;;8.13;5.82;;;17.70;89.20;;;;;;5095817;28;20056;-90
2021/07/18 05:32:07;;;;;;;6.47;4.63;;;17.70;89.20;;;;;;5094959;28;20048;-90
2021/07/18 05:34:33;;;;;;;8.52;4.60;;;17.70;89.60;;;;;;5095197;28;20056;-91
2021/07/18 05:36:59;;;;;;;7.80;5.43;;;17.70;88.90;;;;;;5095934;28;20040;-91
2021/07/18 05:39:24;;;;;;;8.63;6.25;;;17.70;89.70;;;;;;5095835;28;20051;-90
2021/07/18 05:41:50;;;;;;;8.30;5.50;;;17.80;90.20;;;;;;5095763;28;20044;-90
2021/07/18 05:44:16;;;;;;;11.43;7.43;;;17.70;90.30;;;;;;5083788;28;20557;-89
2021/07/18 05:46:42;;;;;;;8.85;6.38;;;17.80;91.00;;;;;;5074731;28;20140;-89
2021/07/18 05:49:07;;;;;;;12.05;7.38;;;17.80;91.00;;;;;;5074552;28;20045;-86
2021/07/18 05:51:33;;;;;;;6.30;4.70;;;17.80;91.40;;;;;;5074590;28;20090;-86
2021/07/18 05:53:59;;;;;;;9.10;6.30;;;17.80;90.50;;;;;;5084989;28;20373;-85
2021/07/18 05:56:25;;;;;;;11.65;6.97;;;17.90;90.90;;;;;;5095167;28;20055;-86
2021/07/18 05:58:50;;;;;;;9.32;6.53;;;17.90;91.20;;;;;;5082443;28;20044;-93
2021/07/18 06:01:16;;;;;;;7.40;5.78;;;18.00;91.40;;;;;;5078234;28;20377;-95
2021/07/18 06:03:44;;;;;;;6.55;4.80;;;18.00;91.20;;;;;;5079381;28;20044;-91
2021/07/18 06:06:09;;;;;;;10.50;5.13;;;18.00;90.70;;;;;;5101069;28;20253;-90
2021/07/18 06:08:35;;;;;;;6.85;4.72;;;18.00;90.40;;;;;;5103519;28;20054;-93
2021/07/18 06:11:00;;;;;;;7.22;5.20;;;18.10;90.00;;;;;;5113203;28;20109;-93
2021/07/18 06:13:26;;;;;;;8.63;5.18;;;18.10;90.00;;;;;;5114755;28;20047;-92
2021/07/18 06:15:52;;;;;;;8.55;5.43;;;18.00;90.30;;;;;;5098442;28;20147;-90
2021/07/18 06:18:17;;;;;;;11.90;6.85;;;18.10;90.30;;;;;;5099437;28;20097;-93
2021/07/18 06:20:43;;;;;;;9.55;6.53;;;18.10;90.80;;;;;;5127158;28;20039;-95
2021/07/18 06:23:09;;;;;;;7.90;5.20;;;18.20;91.30;;;;;;5099262;28;20082;-93
2021/07/18 06:25:34;;;;;;;8.75;6.35;;;18.20;91.10;;;;;;5102599;28;20143;-92
2021/07/18 06:28:00;;;;;;;9.25;6.18;;;18.30;91.40;;;;;;5093470;28;20056;-89
2021/07/18 06:30:25;;;;;;;10.32;5.85;;;18.30;91.20;;;;;;5076407;28;20074;-89
2021/07/18 06:32:52;;;;;;;10.18;6.00;;;18.30;91.20;;;;;;5074901;28;20127;-91
2021/07/18 06:35:17;;;;;;;10.98;6.80;;;18.40;91.20;;;;;;5074145;28;20059;-89
2021/07/18 06:37:43;;;;;;;8.48;6.00;;;18.50;91.90;;;;;;5084676;28;20047;-89
2021/07/18 06:40:10;;;;;;;10.65;6.43;;;18.60;91.70;;;;;;5095505;28;20454;-94
2021/07/18 06:42:36;;;;;;;11.05;6.18;;;18.70;92.00;;;;;;5073679;28;20049;-90
2021/07/18 06:45:03;;;;;;;9.18;6.47;;;18.70;91.80;;;;;;5082992;28;20101;-89
2021/07/18 06:47:29;;;;;;;12.30;6.22;;;18.80;91.80;;;;;;5094078;28;20044;-87
2021/07/18 06:49:57;;;;;;;13.07;7.57;;;18.80;91.70;;;;;;5093777;28;20131;-88
2021/07/18 06:52:23;;;;;;;9.70;5.90;;;19.00;92.30;;;;;;5090231;28;20427;-87
2021/07/18 06:54:49;;;;;;;12.95;7.57;;;19.10;92.30;;;;;;5073949;28;20052;-90
2021/07/18 06:57:14;;;;;;;11.55;6.55;;;19.20;92.60;;;;;;5073538;28;20047;-88
2021/07/18 06:59:40;;;;;;;14.05;6.78;;;19.30;92.30;;;;;;5073677;28;20052;-89
2021/07/18 07:02:06;;;;;;;11.55;7.40;;;19.30;92.20;;;;;;5073862;28;20045;-87
2021/07/18 07:04:32;;;;;;;11.13;7.05;;;19.50;92.20;;;;;;5072920;28;20041;-87
2021/07/18 07:06:57;;;;;;;9.98;6.57;;;19.60;92.20;;;;;;5073632;28;20051;-88
2021/07/18 07:09:23;;;;;;;11.88;7.00;;;19.60;91.90;;;;;;5073842;28;20572;-89
2021/07/18 07:11:49;;;;;;;11.88;7.25;;;19.70;92.00;;;;;;5072975;28;20507;-87
2021/07/18 07:14:14;;;;;;;12.23;7.47;;;19.80;92.00;;;;;;5072873;28;20166;-89
2021/07/18 07:16:40;;;;;;;12.20;7.18;;;19.80;92.20;;;;;;5073924;28;20052;-87
2021/07/18 07:19:06;;;;;;;12.85;7.15;;;19.90;92.20;;;;;;5072947;28;20466;-89
2021/07/18 07:21:31;;;;;;;11.10;6.28;;;20.00;92.10;;;;;;5073615;28;20078;-89
2021/07/18 07:24:13;;;;;;;11.30;6.45;;;20.10;92.00;;;;;;5072509;28;20059;-86
2021/07/18 07:26:39;;;;;;;10.95;7.18;;;20.20;91.90;;;;;;5090964;28;20059;-89
2021/07/18 07:29:05;;;;;;;11.95;6.35;;;20.30;91.90;;;;;;5093436;28;20161;-88
2021/07/18 07:31:31;;;;;;;9.50;6.13;;;20.40;91.60;;;;;;5092891;28;20511;-89
2021/07/18 07:33:57;;;;;;;10.48;5.75;;;20.50;91.40;;;;;;5093517;28;20101;-89
2021/07/18 07:36:23;;;;;;;9.68;6.10;;;20.60;91.40;;;;;;5092632;28;20040;-89
2021/07/18 07:38:49;;;;;;;11.98;5.97;;;20.60;91.60;;;;;;5092759;28;20055;-88
2021/07/18 07:41:14;;;;;;;9.82;5.40;;;20.70;91.30;;;;;;5094951;28;20048;-89
2021/07/18 07:43:41;;;;;;;8.88;5.10;;;20.80;91.00;;;;;;5096465;28;20449;-90
2021/07/18 07:46:07;;;;;;;9.25;5.07;;;20.90;90.80;;;;;;5096629;28;20047;-92
2021/07/18 07:48:33;;;;;;;8.32;4.40;;;21.00;90.70;;;;;;5097747;28;20527;-90
2021/07/18 07:51:00;;;;;;;12.32;5.63;;;21.10;90.70;;;;;;5098110;28;20063;-86
2021/07/18 07:53:26;;;;;;;11.75;4.90;;;21.20;90.60;;;;;;5096914;28;20070;-91
2021/07/18 07:55:52;;;;;;;6.20;3.80;;;21.30;90.40;;;;;;5097489;28;20402;-90
2021/07/18 07:58:18;;;;;;;8.70;3.85;;;21.40;90.60;;;;;;5097618;28;20109;-89
2021/07/18 08:00:44;;;;;;;10.30;3.95;;;21.50;89.70;;;;;;5096855;28;20048;-89
2021/07/18 08:03:10;;;;;;;9.52;3.90;;;21.60;89.20;;;;;;5097166;28;20048;-89
2021/07/18 08:05:37;;;;;;;12.27;3.75;;;21.60;88.90;;;;;;5096949;28;20040;-85
2021/07/18 08:08:06;;;;;;;10.05;3.85;;;21.70;88.40;;;;;;5096271;28;20048;-89
2021/07/18 08:10:34;;;;;;;8.65;3.35;;;21.80;87.70;;;;;;5096728;28;20518;-92
2021/07/18 08:13:01;;;;;;;9.68;3.55;;;21.90;87.30;;;;;;5096993;28;20067;-89
2021/07/18 08:15:35;;;;;;;6.85;3.55;;;22.00;87.20;;;;;;5096857;28;20086;-90
2021/07/18 08:18:01;;;;;;;6.68;2.95;;;22.00;87.60;;;;;;5096840;28;20060;-88
2021/07/18 08:20:34;;;;;;;6.95;2.97;;;22.20;87.00;;;;;;5097042;28;20492;-89
2021/07/18 08:23:03;;;;;;;7.70;3.60;;;22.20;86.70;;;;;;5096647;28;20048;-87
2021/07/18 08:25:33;;;;;;;6.03;3.15;;;22.30;86.00;;;;;;5097461;28;20130;-89
2021/07/18 08:27:59;;;;;;;6.60;3.38;;;22.40;86.50;;;;;;5095486;28;20048;-88
2021/07/18 08:30:33;;;;;;;6.68;3.00;;;22.50;86.10;;;;;;5096740;28;20127;-89
2021/07/18 08:32:59;;;;;;;7.80;3.03;;;22.50;85.60;;;;;;5097422;28;20048;-88
2021/07/18 08:35:25;;;;;;;6.07;3.00;;;22.60;85.50;;;;;;5103920;28;20051;-87
2021/07/18 08:37:51;;;;;;;7.47;3.30;;;22.70;85.30;;;;;;5096786;28;20048;-88
2021/07/18 08:40:16;;;;;;;5.15;2.83;;;22.80;85.20;;;;;;5096096;28;20552;-88
2021/07/18 08:42:43;;;;;;;6.43;2.85;;;22.90;84.40;;;;;;5095810;28;20048;-87
2021/07/18 08:45:10;;;;;;;7.55;2.85;;;23.00;84.00;;;;;;5097800;28;20048;-88
2021/07/18 08:47:36;;;;;;;6.18;2.85;;;23.00;83.90;;;;;;5096065;28;20063;-89
2021/07/18 08:50:03;;;;;;;5.95;2.95;;;23.10;84.70;;;;;;5094939;28;20075;-88
2021/07/18 08:52:30;;;;;;;6.68;2.88;;;23.20;83.30;;;;;;5095434;28;20059;-87
2021/07/18 08:54:55;;;;;;;8.82;3.08;;;23.30;83.60;;;;;;5096292;28;20074;-86
2021/07/18 08:57:23;;;;;;;9.20;2.70;;;23.40;84.10;;;;;;5095228;28;20527;-88
2021/07/18 08:59:49;;;;;;;7.22;3.03;;;23.50;83.10;;;;;;5096356;28;20051;-89
2021/07/18 09:02:15;;;;;;;7.55;2.63;;;23.60;83.10;;;;;;5095860;28;20067;-87
2021/07/18 09:04:41;;;;;;;7.30;2.60;;;23.70;82.30;;;;;;5096272;28;20153;-88
2021/07/18 09:07:11;;;;;;;6.13;2.38;;;23.70;82.80;;;;;;5095908;28;20438;-87
2021/07/18 09:09:37;;;;;;;6.35;2.30;;;23.80;82.40;;;;;;5101059;28;20043;-88
2021/07/18 09:12:07;;;;;;;6.00;2.30;;;23.90;82.30;;;;;;5115367;28;20066;-89
2021/07/18 09:14:35;;;;;;;6.07;2.28;;;24.00;81.70;;;;;;5104549;28;20088;-88
2021/07/18 09:17:02;;;;;;;5.93;2.13;;;24.10;80.80;;;;;;5094413;28;20537;-89
2021/07/18 09:19:35;;;;;;;4.88;2.10;;;24.20;81.00;;;;;;5095180;28;20048;-89
2021/07/18 09:22:04;;;;;;;4.95;2.10;;;24.30;79.70;;;;;;5094965;28;20052;-91
2021/07/18 09:24:31;;;;;;;7.10;2.00;;;24.30;79.10;;;;;;5093612;28;20461;-88
2021/07/18 09:27:07;;;;;;;5.28;2.25;;;24.40;79.20;;;;;;5094763;28;20497;-86
2021/07/18 09:29:36;;;;;;;6.03;1.80;;;24.50;78.30;;;;;;5094351;28;20503;-90
2021/07/18 09:32:12;;;;;;;5.40;1.77;;;24.50;77.60;;;;;;5094254;28;20617;-91
2021/07/18 09:34:41;;;;;;;6.40;1.63;;;24.50;76.80;;;;;;5094659;28;20052;-91
2021/07/18 09:37:14;;;;;;;4.80;1.80;;;24.60;76.40;;;;;;5094611;28;20040;-90
2021/07/18 09:39:45;;;;;;;4.28;1.60;;;24.70;76.40;;;;;;5094116;28;20510;-90
2021/07/18 09:42:30;;;;;;;4.13;1.70;;;24.70;76.90;;;;;;5093917;28;20380;-89
2021/07/18 09:44:56;;;;;;;4.95;1.75;;;24.90;75.80;;;;;;5094478;28;20044;-89
2021/07/18 09:47:22;;;;;;;4.82;1.50;;;24.90;76.10;;;;;;5095397;28;20056;-88
2021/07/18 09:49:48;;;;;;;4.03;1.40;;;25.00;75.10;;;;;;5094270;28;20105;-89
2021/07/18 09:52:18;;;;;;;5.10;1.70;;;25.10;75.20;;;;;;5094125;28;20055;-89
2021/07/18 09:54:48;;;;;;;4.75;1.73;;;25.10;74.70;;;;;;5094944;28;20047;-87
2021/07/18 09:57:31;;;;;;;4.88;1.80;;;25.20;74.20;;;;;;5093970;28;20044;-86
2021/07/18 09:59:58;;;;;;;5.22;1.60;;;25.20;73.80;;;;;;5101982;28;20044;-89
2021/07/18 10:02:25;;;;;;;6.72;1.67;;;25.30;74.40;;;;;;5104429;28;20121;-90
2021/07/18 10:04:51;;;;;;;3.70;1.38;;;25.30;74.50;;;;;;5113894;28;20052;-88
2021/07/18 10:07:20;;;;;;;4.63;1.52;;;25.40;73.60;;;;;;5096298;28;20047;-89
2021/07/18 10:09:46;;;;;;;3.40;1.52;;;25.40;73.20;;;;;;5094688;28;20075;-88
2021/07/18 10:12:12;;;;;;;4.75;1.50;;;25.50;74.20;;;;;;5092905;28;20440;-90
2021/07/18 10:14:39;;;;;;;4.68;1.52;;;25.60;73.50;;;;;;5093282;28;20139;-89
2021/07/18 10:17:06;;;;;;;3.47;1.40;;;25.60;73.90;;;;;;5094010;28;20071;-89
2021/07/18 10:19:31;;;;;;;5.20;1.30;;;25.70;73.60;;;;;;5094666;28;20052;-93
2021/07/18 10:21:58;;;;;;;3.38;1.30;;;25.70;72.80;;;;;;5095210;28;20442;-91
2021/07/18 10:24:26;;;;;;;3.83;1.50;;;25.80;71.40;;;;;;5108454;28;20075;-89
2021/07/18 10:26:52;;;;;;;4.95;1.38;;;25.80;70.80;;;;;;5093581;28;20079;-91
2021/07/18 10:29:18;;;;;;;3.78;1.30;;;25.80;70.70;;;;;;5093635;28;20086;-90
2021/07/18 10:31:50;;;;;;;3.55;1.50;;;25.80;69.20;;;;;;5087860;28;20146;-90
2021/07/18 10:34:17;;;;;;;3.78;1.50;;;25.90;70.10;;;;;;5079784;28;20048;-88
2021/07/18 10:36:43;;;;;;;3.92;1.48;;;25.90;71.10;;;;;;5100865;28;20144;-92
2021/07/18 10:39:42;;;;;;;5.03;1.75;;;26.00;70.50;;;;;;5108435;28;20048;-92
2021/07/18 10:42:15;;;;;;;4.03;1.40;;;26.10;70.40;;;;;;5062806;28;20060;-90
2021/07/18 10:44:43;;;;;;;3.85;1.33;;;26.10;70.40;;;;;;5093737;28;20063;-89
2021/07/18 10:47:10;;;;;;;5.00;1.40;;;26.20;69.70;;;;;;5093010;28;20051;-90
2021/07/18 10:49:54;;;;;;;6.53;1.83;;;26.20;69.80;;;;;;5092620;28;20048;-88
2021/07/18 10:52:23;;;;;;;4.97;1.60;;;26.20;68.70;;;;;;5095352;28;20043;-91
2021/07/18 10:54:49;;;;;;;4.65;1.50;;;26.30;70.30;;;;;;5110820;28;20483;-89
2021/07/18 10:57:23;;;;;;;4.57;1.50;;;26.40;70.20;;;;;;5092374;28;20044;-92
2021/07/18 10:59:49;;;;;;;4.30;1.60;;;26.40;70.50;;;;;;5093435;28;20541;-93
2021/07/18 11:02:20;;;;;;;4.13;1.60;;;26.50;69.80;;;;;;5093000;28;20048;-89
2021/07/18 11:04:47;;;;;;;5.43;1.45;;;26.60;68.70;;;;;;5093997;28;20052;-88
2021/07/18 11:07:21;;;;;;;3.58;1.40;;;26.70;68.40;;;;;;5093156;28;20115;-89
2021/07/18 11:09:54;;;;;;;3.25;1.50;;;26.70;68.70;;;;;;5093483;28;20062;-88
2021/07/18 11:12:29;;;;;;;4.20;1.40;;;26.70;68.50;;;;;;5093676;28;20055;-88
2021/07/18 11:15:23;;;;;;;5.07;1.60;;;26.70;67.80;;;;;;5093812;28;20052;-88
2021/07/18 11:17:55;;;;;;;5.50;1.40;;;26.60;68.60;;;;;;5092921;28;20051;-92
2021/07/18 11:20:39;;;;;;;;;;;26.70;70.00;;;;;;5092778;28;20407;-88
2021/07/18 11:23:07;;;;;;;3.58;1.40;;;26.70;68.70;;;;;;5092347;28;19955;-90
2021/07/18 11:26:04;;;;;;;10.52;1.63;;;26.80;68.50;;;;;;5093635;28;20407;-91
2021/07/18 11:28:30;;;;;;;3.55;1.40;;;26.70;66.00;;;;;;5091030;28;20507;-91
2021/07/18 11:31:14;;;;;;;4.72;1.65;;;26.70;68.40;;;;;;5093351;28;20106;-90
2021/07/18 11:33:45;;;;;;;5.03;1.50;;;26.70;67.60;;;;;;5093700;28;20048;-89
2021/07/18 11:36:13;;;;;;;4.10;1.52;;;26.80;68.50;;;;;;5093557;28;20311;-89
2021/07/18 11:38:39;;;;;;;7.45;1.55;;;26.90;69.20;;;;;;5092939;28;20044;-90
2021/07/18 11:41:33;;;;;;;7.07;1.35;;;26.90;67.50;;;;;;5088085;28;20472;-88
2021/07/18 11:44:03;;;;;;;4.80;1.60;;;26.90;66.10;;;;;;5064231;28;20052;-86
2021/07/18 11:46:37;;;;;;;4.65;1.70;;;26.90;67.80;;;;;;5072705;28;20048;-88
2021/07/18 11:49:04;;;;;;;4.70;1.75;;;26.90;68.00;;;;;;5072888;28;20122;-91
2021/07/18 11:51:34;;;;;;;4.63;1.55;;;27.00;67.10;;;;;;5073694;28;20117;-87
2021/07/18 11:54:00;;;;;;;6.07;2.00;;;27.00;66.50;;;;;;5073249;28;20045;-90
2021/07/18 11:56:31;;;;;;;4.45;1.70;;;27.10;67.60;;;;;;5073119;28;20056;-88
2021/07/18 11:59:06;;;;;;;5.63;1.73;;;27.10;67.60;;;;;;5072602;28;20104;-88
2021/07/18 12:01:33;;;;;;;4.47;1.80;;;27.10;67.80;;;;;;5092750;28;20048;-86
2021/07/18 12:03:59;;;;;;;7.10;1.85;;;27.10;68.80;;;;;;5093639;28;20051;-89
2021/07/18 12:06:27;;;;;;;5.15;1.65;;;27.10;69.30;;;;;;5092863;28;20089;-87
2021/07/18 12:08:54;;;;;;;6.15;2.00;;;27.10;69.20;;;;;;5092849;28;20071;-88
2021/07/18 12:11:24;;;;;;;5.85;1.80;;;27.10;69.70;;;;;;5091133;28;20046;-88
2021/07/18 12:13:52;;;;;;;9.07;2.00;;;27.10;68.20;;;;;;5092130;28;20056;-89
2021/07/18 12:16:18;;;;;;;6.43;1.90;;;27.10;67.50;;;;;;5092621;28;20452;-89
2021/07/18 12:18:48;;;;;;;5.00;2.17;;;27.10;68.00;;;;;;5092645;28;20132;-90
2021/07/18 12:21:19;;;;;;;5.05;1.80;;;27.10;68.10;;;;;;5090132;28;20139;-88
2021/07/18 12:24:04;;;;;;;6.38;1.92;;;27.10;66.50;;;;;;5075030;28;20048;-88
2021/07/18 12:26:29;;;;;;;6.10;2.10;;;27.10;66.40;;;;;;5090300;28;20048;-88
2021/07/18 12:29:08;;;;;;;6.85;1.80;;;27.10;67.40;;;;;;5095143;28;20411;-89
2021/07/18 12:31:37;;;;;;;6.00;1.95;;;27.20;67.50;;;;;;5096790;28;20491;-88
2021/07/18 12:34:03;;;;;;;6.72;1.80;;;27.20;66.80;;;;;;5095386;28;20056;-89
2021/07/18 12:36:29;;;;;;;5.18;1.88;;;27.20;67.00;;;;;;5101093;28;20526;-89
2021/07/18 12:38:54;;;;;;;5.93;1.90;;;27.10;67.30;;;;;;5096197;28;20044;-87
2021/07/18 12:41:21;;;;;;;6.78;2.10;;;27.10;67.70;;;;;;5094940;28;20051;-87
2021/07/18 12:43:46;;;;;;;7.10;1.85;;;27.10;68.80;;;;;;5116637;28;20043;-92
2021/07/18 12:46:18;;;;;;;5.20;1.92;;;27.10;67.40;;;;;;5117249;28;20505;-92